SLJE/SJS METAR and TAF weather

Enter ICAO airport designator
Station Type Date Time Source
SLJE METAR 2019/02/20 22:00 UTC NOAA

SLJE 202200Z 00000KT 9999 NSC 32/22 Q1009


Station Type Date Time Source
SLJE Decoded METAR 2019/02/20 22:00 UTC NOAA

San Jose De Chiquitos, Bolivia (SLJE) 17-48S 060-44W
Feb 20, 2019 - 05:00 PM EST / 2019.02.20 2200 UTC
Wind: Calm:0
Visibility: greater than 7 mile(s):0
Temperature: 89 F (32 C)
Heat index: 95.0 F (35.0 C):1
Dew Point: 71 F (22 C)
Relative Humidity: 55%
Pressure (altimeter): 29.80 in. Hg (1009 hPa)
ob: SLJE 202200Z 00000KT 9999 NSC 32/22 Q1009
cycle: 22

Station Type Date Time Source
SLJE TAF 2009/01/07 11:00 UTC NOAA

METAR SLJE 071100Z 00000KT 9999 SKC 21/18 Q1014


Example: see airport list